sensor_id;sensor_type;location;lat;lon;timestamp;pressure;altitude;pressure_sealevel;temperature;humidity
59116;BME280;53564;51.930;4.640;2022-09-20T00:02:16;102432.81;;;12.53;74.86
59116;BME280;53564;51.930;4.640;2022-09-20T00:04:42;102446.16;;;12.50;74.97
59116;BME280;53564;51.930;4.640;2022-09-20T00:07:07;102438.09;;;12.57;74.78
59116;BME280;53564;51.930;4.640;2022-09-20T00:09:32;102431.81;;;12.64;74.52
59116;BME280;53564;51.930;4.640;2022-09-20T00:11:58;102416.94;;;12.46;75.49
59116;BME280;53564;51.930;4.640;2022-09-20T00:14:24;102431.00;;;12.56;74.25
59116;BME280;53564;51.930;4.640;2022-09-20T00:16:49;102433.72;;;12.50;76.29
59116;BME280;53564;51.930;4.640;2022-09-20T00:19:20;102436.31;;;12.59;74.38
59116;BME280;53564;51.930;4.640;2022-09-20T00:21:46;102424.00;;;12.49;74.64
59116;BME280;53564;51.930;4.640;2022-09-20T00:24:11;102433.59;;;12.64;74.33
59116;BME280;53564;51.930;4.640;2022-09-20T00:26:37;102423.94;;;12.55;74.33
59116;BME280;53564;51.930;4.640;2022-09-20T00:29:02;102425.63;;;12.62;73.77
59116;BME280;53564;51.930;4.640;2022-09-20T00:31:28;102435.66;;;12.37;77.63
59116;BME280;53564;51.930;4.640;2022-09-20T00:33:54;102436.06;;;11.91;79.75
59116;BME280;53564;51.930;4.640;2022-09-20T00:36:49;102442.28;;;11.85;80.51
59116;BME280;53564;51.930;4.640;2022-09-20T00:39:15;102447.59;;;11.85;82.01
59116;BME280;53564;51.930;4.640;2022-09-20T00:41:41;102456.69;;;11.59;83.98
59116;BME280;53564;51.930;4.640;2022-09-20T00:47:04;102449.81;;;11.24;86.19
59116;BME280;53564;51.930;4.640;2022-09-20T00:49:30;102455.69;;;11.71;83.46
59116;BME280;53564;51.930;4.640;2022-09-20T00:51:59;102472.09;;;12.27;79.65
59116;BME280;53564;51.930;4.640;2022-09-20T00:54:25;102459.56;;;12.42;78.12
59116;BME280;53564;51.930;4.640;2022-09-20T00:56:53;102460.44;;;12.42;78.06
59116;BME280;53564;51.930;4.640;2022-09-20T00:59:22;102482.09;;;12.01;80.36
59116;BME280;53564;51.930;4.640;2022-09-20T01:01:52;102469.06;;;11.60;83.30
59116;BME280;53564;51.930;4.640;2022-09-20T01:04:21;102464.41;;;11.90;83.71
59116;BME280;53564;51.930;4.640;2022-09-20T01:06:51;102451.91;;;12.06;81.62
59116;BME280;53564;51.930;4.640;2022-09-20T01:09:17;102449.81;;;12.41;78.37
59116;BME280;53564;51.930;4.640;2022-09-20T01:11:43;102459.56;;;12.42;79.28
59116;BME280;53564;51.930;4.640;2022-09-20T01:14:12;102433.88;;;12.39;77.18
59116;BME280;53564;51.930;4.640;2022-09-20T01:16:39;102409.84;;;12.44;75.63
59116;BME280;53564;51.930;4.640;2022-09-20T01:19:16;102415.94;;;12.57;75.01
59116;BME280;53564;51.930;4.640;2022-09-20T01:21:45;102432.63;;;12.70;74.57
59116;BME280;53564;51.930;4.640;2022-09-20T01:24:37;102435.28;;;12.70;74.32
59116;BME280;53564;51.930;4.640;2022-09-20T01:27:38;102421.13;;;12.68;74.36
59116;BME280;53564;51.930;4.640;2022-09-20T01:30:13;102441.41;;;12.78;74.03
59116;BME280;53564;51.930;4.640;2022-09-20T01:35:16;102424.63;;;12.73;73.78
59116;BME280;53564;51.930;4.640;2022-09-20T01:37:53;102443.13;;;12.82;73.87
59116;BME280;53564;51.930;4.640;2022-09-20T01:40:27;102436.97;;;12.78;73.61
59116;BME280;53564;51.930;4.640;2022-09-20T01:43:08;102434.28;;;12.80;73.57
59116;BME280;53564;51.930;4.640;2022-09-20T01:45:40;102441.34;;;12.84;73.72
59116;BME280;53564;51.930;4.640;2022-09-20T01:48:30;102441.44;;;12.75;76.67
59116;BME280;53564;51.930;4.640;2022-09-20T01:56:55;102462.00;;;11.59;85.61
59116;BME280;53564;51.930;4.640;2022-09-20T01:59:44;102462.97;;;11.44;87.37
59116;BME280;53564;51.930;4.640;2022-09-20T02:02:37;102456.56;;;11.75;85.57
59116;BME280;53564;51.930;4.640;2022-09-20T02:08:05;102453.66;;;12.07;82.59
59116;BME280;53564;51.930;4.640;2022-09-20T02:16:19;102429.16;;;12.64;75.61
59116;BME280;53564;51.930;4.640;2022-09-20T02:18:55;102414.09;;;12.62;74.83
59116;BME280;53564;51.930;4.640;2022-09-20T02:27:01;102414.81;;;12.75;74.25
59116;BME280;53564;51.930;4.640;2022-09-20T02:29:54;102415.78;;;12.69;74.68
59116;BME280;53564;51.930;4.640;2022-09-20T02:32:33;102416.66;;;12.70;74.21
59116;BME280;53564;51.930;4.640;2022-09-20T02:40:45;102425.19;;;12.22;78.39
59116;BME280;53564;51.930;4.640;2022-09-20T02:43:37;102424.00;;;12.49;77.11
59116;BME280;53564;51.930;4.640;2022-09-20T02:46:12;102417.97;;;12.30;77.34
59116;BME280;53564;51.930;4.640;2022-09-20T02:49:11;102426.75;;;12.40;76.78
59116;BME280;53564;51.930;4.640;2022-09-20T02:51:48;102418.72;;;12.46;75.97
59116;BME280;53564;51.930;4.640;2022-09-20T02:54:41;102429.41;;;12.43;76.26
59116;BME280;53564;51.930;4.640;2022-09-20T02:59:40;102434.91;;;12.24;78.52
59116;BME280;53564;51.930;4.640;2022-09-20T03:02:29;102422.38;;;12.32;76.27
59116;BME280;53564;51.930;4.640;2022-09-20T03:08:03;102424.06;;;12.41;75.92
59116;BME280;53564;51.930;4.640;2022-09-20T03:10:37;102429.25;;;12.57;74.73
59116;BME280;53564;51.930;4.640;2022-09-20T03:18:16;102415.84;;;12.61;73.77
59116;BME280;53564;51.930;4.640;2022-09-20T03:23:40;102430.03;;;12.67;73.96
59116;BME280;53564;51.930;4.640;2022-09-20T03:26:27;102420.47;;;12.47;75.32
59116;BME280;53564;51.930;4.640;2022-09-20T03:29:04;102428.28;;;12.62;74.39
59116;BME280;53564;51.930;4.640;2022-09-20T03:34:36;102420.47;;;12.47;74.85
59116;BME280;53564;51.930;4.640;2022-09-20T03:37:13;102425.75;;;12.50;74.69
59116;BME280;53564;51.930;4.640;2022-09-20T03:42:13;102425.81;;;12.44;75.34
59116;BME280;53564;51.930;4.640;2022-09-20T03:50:41;102424.03;;;12.46;74.73
59116;BME280;53564;51.930;4.640;2022-09-20T04:04:56;102425.66;;;12.59;73.79
59116;BME280;53564;51.930;4.640;2022-09-20T04:16:02;102440.16;;;12.30;76.82
59116;BME280;53564;51.930;4.640;2022-09-20T04:18:34;102441.78;;;12.44;75.28
59116;BME280;53564;51.930;4.640;2022-09-20T04:21:04;102446.47;;;12.22;77.91
59116;BME280;53564;51.930;4.640;2022-09-20T04:23:58;102444.75;;;12.13;77.43
59116;BME280;53564;51.930;4.640;2022-09-20T04:26:26;102441.78;;;12.44;75.32
59116;BME280;53564;51.930;4.640;2022-09-20T04:29:26;102443.66;;;12.32;78.17
59116;BME280;53564;51.930;4.640;2022-09-20T04:32:02;102456.00;;;12.43;75.42
59116;BME280;53564;51.930;4.640;2022-09-20T04:34:59;102443.72;;;12.29;76.30
59116;BME280;53564;51.930;4.640;2022-09-20T04:37:44;102454.22;;;12.42;75.45
59116;BME280;53564;51.930;4.640;2022-09-20T04:40:25;102443.66;;;12.36;75.37
59116;BME280;53564;51.930;4.640;2022-09-20T04:46:15;102465.09;;;12.17;76.81
59116;BME280;53564;51.930;4.640;2022-09-20T04:52:02;102459.91;;;12.05;79.29
59116;BME280;53564;51.930;4.640;2022-09-20T04:54:56;102463.09;;;12.41;77.84
59116;BME280;53564;51.930;4.640;2022-09-20T05:00:19;102460.50;;;12.35;76.37
59116;BME280;53564;51.930;4.640;2022-09-20T05:03:04;102463.16;;;12.35;77.49
59116;BME280;53564;51.930;4.640;2022-09-20T05:08:28;102457.72;;;12.47;76.30
59116;BME280;53564;51.930;4.640;2022-09-20T05:14:09;102463.28;;;12.22;77.98
59116;BME280;53564;51.930;4.640;2022-09-20T05:17:14;102456.75;;;12.56;76.66
59116;BME280;53564;51.930;4.640;2022-09-20T05:20:20;102454.19;;;12.45;76.38
59116;BME280;53564;51.930;4.640;2022-09-20T05:28:49;102463.22;;;12.28;77.10
59116;BME280;53564;51.930;4.640;2022-09-20T05:32:05;102463.25;;;12.27;77.17
59116;BME280;53564;51.930;4.640;2022-09-20T05:34:45;102468.59;;;12.25;77.46
59116;BME280;53564;51.930;4.640;2022-09-20T05:37:34;102459.38;;;12.57;76.05
59116;BME280;53564;51.930;4.640;2022-09-20T05:42:34;102466.28;;;12.74;74.83
59116;BME280;53564;51.930;4.640;2022-09-20T05:45:20;102453.94;;;12.70;74.71
59116;BME280;53564;51.930;4.640;2022-09-20T05:47:55;102465.50;;;12.66;74.76
59116;BME280;53564;51.930;4.640;2022-09-20T05:53:23;102475.09;;;12.82;74.04
59116;BME280;53564;51.930;4.640;2022-09-20T06:01:03;102473.28;;;12.84;73.94
59116;BME280;53564;51.930;4.640;2022-09-20T06:03:44;102480.34;;;12.85;73.39
59116;BME280;53564;51.930;4.640;2022-09-20T06:06:27;102470.47;;;12.95;74.63
59116;BME280;53564;51.930;4.640;2022-09-20T06:11:59;102480.25;;;12.94;75.18
59116;BME280;53564;51.930;4.640;2022-09-20T06:17:13;102484.72;;;12.94;75.56
59116;BME280;53564;51.930;4.640;2022-09-20T06:22:30;102477.59;;;12.94;73.44
59116;BME280;53564;51.930;4.640;2022-09-20T06:28:15;102479.41;;;12.94;77.77
59116;BME280;53564;51.930;4.640;2022-09-20T06:30:46;102478.47;;;12.96;74.55
59116;BME280;53564;51.930;4.640;2022-09-20T06:33:17;102475.63;;;13.10;73.09
59116;BME280;53564;51.930;4.640;2022-09-20T06:35:56;102488.91;;;13.12;72.40
59116;BME280;53564;51.930;4.640;2022-09-20T06:38:40;102489.41;;;13.47;73.24
59116;BME280;53564;51.930;4.640;2022-09-20T06:41:30;102484.31;;;13.25;74.14
59116;BME280;53564;51.930;4.640;2022-09-20T06:43:58;102494.13;;;13.21;72.73
59116;BME280;53564;51.930;4.640;2022-09-20T06:46:28;102481.97;;;13.02;78.28
59116;BME280;53564;51.930;4.640;2022-09-20T06:48:55;102483.81;;;12.96;74.88
59116;BME280;53564;51.930;4.640;2022-09-20T06:51:21;102473.16;;;12.96;73.26
59116;BME280;53564;51.930;4.640;2022-09-20T06:53:47;102488.91;;;13.12;72.69
59116;BME280;53564;51.930;4.640;2022-09-20T06:56:19;102489.50;;;13.37;74.49
59116;BME280;53564;51.930;4.640;2022-09-20T06:58:45;102503.03;;;13.20;75.50
59116;BME280;53564;51.930;4.640;2022-09-20T07:01:10;102483.59;;;13.12;73.05
59116;BME280;53564;51.930;4.640;2022-09-20T07:03:38;102501.34;;;13.13;77.32
59116;BME280;53564;51.930;4.640;2022-09-20T07:06:03;102478.53;;;12.90;74.57
59116;BME280;53564;51.930;4.640;2022-09-20T07:08:29;102471.56;;;12.78;74.21
59116;BME280;53564;51.930;4.640;2022-09-20T07:10:54;102482.72;;;13.10;75.32
59116;BME280;53564;51.930;4.640;2022-09-20T07:13:20;102486.50;;;12.92;76.19
59116;BME280;53564;51.930;4.640;2022-09-20T07:15:47;102495.09;;;13.16;74.75
59116;BME280;53564;51.930;4.640;2022-09-20T07:18:12;102486.38;;;13.01;73.82
59116;BME280;53564;51.930;4.640;2022-09-20T07:20:37;102490.78;;;13.07;74.11
59116;BME280;53564;51.930;4.640;2022-09-20T07:23:03;102490.63;;;13.19;73.74
59116;BME280;53564;51.930;4.640;2022-09-20T07:25:30;102499.44;;;13.21;75.10
59116;BME280;53564;51.930;4.640;2022-09-20T07:27:56;102462.06;;;13.27;74.69
59116;BME280;53564;51.930;4.640;2022-09-20T07:30:21;102458.75;;;13.10;73.14
59116;BME280;53564;51.930;4.640;2022-09-20T07:32:47;102491.38;;;13.27;74.47
59116;BME280;53564;51.930;4.640;2022-09-20T07:35:12;102497.16;;;13.62;75.10
59116;BME280;53564;51.930;4.640;2022-09-20T07:37:38;102483.22;;;13.43;73.78
59116;BME280;53564;51.930;4.640;2022-09-20T07:40:08;102493.81;;;13.46;73.65
59116;BME280;53564;51.930;4.640;2022-09-20T07:42:34;102503.47;;;13.55;73.29
59116;BME280;53564;51.930;4.640;2022-09-20T07:45:00;102493.78;;;14.07;75.70
59116;BME280;53564;51.930;4.640;2022-09-20T07:47:27;102526.44;;;13.65;73.70
59116;BME280;53564;51.930;4.640;2022-09-20T07:49:56;102534.84;;;13.98;73.09
59116;BME280;53564;51.930;4.640;2022-09-20T07:52:21;102528.72;;;13.91;72.55
59116;BME280;53564;51.930;4.640;2022-09-20T07:54:47;102526.81;;;14.00;72.03
59116;BME280;53564;51.930;4.640;2022-09-20T07:57:14;102530.38;;;13.99;72.98
59116;BME280;53564;51.930;4.640;2022-09-20T07:59:39;102531.28;;;13.99;72.19
59116;BME280;53564;51.930;4.640;2022-09-20T08:02:05;102525.59;;;14.19;72.26
59116;BME280;53564;51.930;4.640;2022-09-20T08:04:30;102530.34;;;14.53;71.61
59116;BME280;53564;51.930;4.640;2022-09-20T08:06:56;102521.31;;;14.61;70.62
59116;BME280;53564;51.930;4.640;2022-09-20T08:09:23;102544.97;;;14.82;69.01
59116;BME280;53564;51.930;4.640;2022-09-20T08:11:48;102528.84;;;14.38;69.55
59116;BME280;53564;51.930;4.640;2022-09-20T08:14:16;102499.22;;;14.54;65.94
59116;BME280;53564;51.930;4.640;2022-09-20T08:16:43;102517.88;;;15.04;66.81
59116;BME280;53564;51.930;4.640;2022-09-20T08:19:17;102500.00;;;15.06;65.96
59116;BME280;53564;51.930;4.640;2022-09-20T08:21:43;102537.78;;;15.31;66.43
59116;BME280;53564;51.930;4.640;2022-09-20T08:24:08;102504.09;;;14.80;67.59
59116;BME280;53564;51.930;4.640;2022-09-20T08:26:34;102536.91;;;15.31;68.78
59116;BME280;53564;51.930;4.640;2022-09-20T08:29:00;102551.72;;;15.02;68.27
59116;BME280;53564;51.930;4.640;2022-09-20T08:31:29;102540.53;;;14.83;65.92
59116;BME280;53564;51.930;4.640;2022-09-20T08:33:56;102545.56;;;14.98;62.49
59116;BME280;53564;51.930;4.640;2022-09-20T08:36:24;102547.03;;;14.68;60.64
59116;BME280;53564;51.930;4.640;2022-09-20T08:38:51;102545.75;;;14.87;63.12
59116;BME280;53564;51.930;4.640;2022-09-20T08:41:31;102549.25;;;14.91;62.62
59116;BME280;53564;51.930;4.640;2022-09-20T08:44:02;102552.31;;;15.18;62.94
59116;BME280;53564;51.930;4.640;2022-09-20T08:46:38;102553.53;;;15.00;62.25
59116;BME280;53564;51.930;4.640;2022-09-20T08:49:06;102552.16;;;15.26;61.21
59116;BME280;53564;51.930;4.640;2022-09-20T08:51:35;102554.81;;;15.26;61.07
59116;BME280;53564;51.930;4.640;2022-09-20T08:54:02;102558.84;;;15.03;62.42
59116;BME280;53564;51.930;4.640;2022-09-20T08:56:31;102548.81;;;15.14;62.47
59116;BME280;53564;51.930;4.640;2022-09-20T08:59:00;102553.22;;;15.59;60.50
59116;BME280;53564;51.930;4.640;2022-09-20T09:01:27;102571.97;;;15.58;61.21
59116;BME280;53564;51.930;4.640;2022-09-20T09:04:03;102565.91;;;15.49;60.01
59116;BME280;53564;51.930;4.640;2022-09-20T09:06:35;102560.44;;;15.55;61.37
59116;BME280;53564;51.930;4.640;2022-09-20T09:09:01;102550.78;;;15.48;61.26
59116;BME280;53564;51.930;4.640;2022-09-20T09:11:26;102550.22;;;15.32;59.90
59116;BME280;53564;51.930;4.640;2022-09-20T09:14:04;102561.03;;;15.26;58.88
59116;BME280;53564;51.930;4.640;2022-09-20T09:16:51;102568.53;;;15.07;59.86
59116;BME280;53564;51.930;4.640;2022-09-20T09:19:32;102582.03;;;15.01;60.78
59116;BME280;53564;51.930;4.640;2022-09-20T09:22:07;102565.13;;;15.44;60.97
59116;BME280;53564;51.930;4.640;2022-09-20T09:24:33;102576.69;;;15.87;61.48
59116;BME280;53564;51.930;4.640;2022-09-20T09:27:16;102569.72;;;15.78;60.60
59116;BME280;53564;51.930;4.640;2022-09-20T09:29:54;102577.75;;;15.36;60.47
59116;BME280;53564;51.930;4.640;2022-09-20T09:32:24;102577.75;;;15.78;59.45
59116;BME280;53564;51.930;4.640;2022-09-20T09:34:52;102566.88;;;16.61;58.88
59116;BME280;53564;51.930;4.640;2022-09-20T09:37:36;102558.47;;;15.62;59.62
59116;BME280;53564;51.930;4.640;2022-09-20T09:40:15;102569.72;;;15.78;60.76
59116;BME280;53564;51.930;4.640;2022-09-20T09:42:59;102579.16;;;16.34;60.64
59116;BME280;53564;51.930;4.640;2022-09-20T09:45:37;102571.16;;;15.52;59.53
59116;BME280;53564;51.930;4.640;2022-09-20T09:48:22;102574.34;;;16.11;59.02
59116;BME280;53564;51.930;4.640;2022-09-20T09:50:48;102580.28;;;15.88;58.65
59116;BME280;53564;51.930;4.640;2022-09-20T09:53:22;102583.13;;;16.17;59.34
59116;BME280;53564;51.930;4.640;2022-09-20T10:04:36;102588.53;;;15.75;57.49
59116;BME280;53564;51.930;4.640;2022-09-20T10:10:07;102579.03;;;16.01;57.74
59116;BME280;53564;51.930;4.640;2022-09-20T10:12:57;102570.78;;;16.82;56.73
59116;BME280;53564;51.930;4.640;2022-09-20T10:18:41;102560.91;;;17.16;56.57
59116;BME280;53564;51.930;4.640;2022-09-20T10:21:38;102569.03;;;17.74;54.82
59116;BME280;53564;51.930;4.640;2022-09-20T10:24:24;102566.41;;;16.44;57.96
59116;BME280;53564;51.930;4.640;2022-09-20T10:30:14;102565.69;;;15.60;62.66
59116;BME280;53564;51.930;4.640;2022-09-20T10:38:36;102574.91;;;13.93;68.70
59116;BME280;53564;51.930;4.640;2022-09-20T10:41:13;102579.59;;;14.34;69.40
59116;BME280;53564;51.930;4.640;2022-09-20T10:44:20;102579.31;;;13.96;68.59
59116;BME280;53564;51.930;4.640;2022-09-20T10:47:13;102595.84;;;14.21;69.44
59116;BME280;53564;51.930;4.640;2022-09-20T11:01:15;102602.72;;;14.35;69.87
59116;BME280;53564;51.930;4.640;2022-09-20T11:03:50;102597.34;;;14.38;70.37
59116;BME280;53564;51.930;4.640;2022-09-20T11:06:36;102604.66;;;14.27;69.83
59116;BME280;53564;51.930;4.640;2022-09-20T11:09:07;102608.63;;;14.55;69.71
59116;BME280;53564;51.930;4.640;2022-09-20T11:11:41;102587.13;;;14.63;69.50
59116;BME280;53564;51.930;4.640;2022-09-20T11:14:20;102604.03;;;14.64;68.62
59116;BME280;53564;51.930;4.640;2022-09-20T11:19:27;102598.63;;;15.61;64.76
59116;BME280;53564;51.930;4.640;2022-09-20T11:22:11;102599.41;;;15.66;66.00
59116;BME280;53564;51.930;4.640;2022-09-20T11:24:45;102597.09;;;15.50;64.39
59116;BME280;53564;51.930;4.640;2022-09-20T11:27:22;102601.53;;;16.66;63.81
59116;BME280;53564;51.930;4.640;2022-09-20T11:30:04;102604.69;;;16.47;60.99
59116;BME280;53564;51.930;4.640;2022-09-20T11:32:33;102601.44;;;15.97;61.69
59116;BME280;53564;51.930;4.640;2022-09-20T11:35:09;102603.41;;;15.45;61.73
59116;BME280;53564;51.930;4.640;2022-09-20T11:37:45;102596.84;;;16.41;62.65
59116;BME280;53564;51.930;4.640;2022-09-20T11:40:14;102600.16;;;17.19;58.65
59116;BME280;53564;51.930;4.640;2022-09-20T11:42:43;102587.31;;;16.64;58.42
59116;BME280;53564;51.930;4.640;2022-09-20T11:45:10;102553.25;;;17.04;59.50
59116;BME280;53564;51.930;4.640;2022-09-20T11:47:46;102580.91;;;17.36;59.64
59116;BME280;53564;51.930;4.640;2022-09-20T11:53:19;102598.06;;;15.89;59.24
59116;BME280;53564;51.930;4.640;2022-09-20T11:56:06;102606.78;;;15.97;58.36
59116;BME280;53564;51.930;4.640;2022-09-20T11:58:52;102594.00;;;16.11;57.56
59116;BME280;53564;51.930;4.640;2022-09-20T12:01:29;102594.75;;;15.76;58.54
59116;BME280;53564;51.930;4.640;2022-09-20T12:04:05;102596.69;;;15.69;59.89
59116;BME280;53564;51.930;4.640;2022-09-20T12:06:35;102598.59;;;16.05;61.49
59116;BME280;53564;51.930;4.640;2022-09-20T12:09:06;102603.41;;;15.89;61.63
59116;BME280;53564;51.930;4.640;2022-09-20T12:11:45;102597.78;;;15.16;61.62
59116;BME280;53564;51.930;4.640;2022-09-20T12:14:20;102601.69;;;14.97;61.69
59116;BME280;53564;51.930;4.640;2022-09-20T12:16:48;102603.00;;;15.21;61.77
59116;BME280;53564;51.930;4.640;2022-09-20T12:24:34;102600.13;;;15.32;61.13
59116;BME280;53564;51.930;4.640;2022-09-20T12:27:18;102604.03;;;15.59;60.22
59116;BME280;53564;51.930;4.640;2022-09-20T12:38:31;102609.56;;;15.92;58.54
59116;BME280;53564;51.930;4.640;2022-09-20T12:41:05;102597.84;;;15.55;58.55
59116;BME280;53564;51.930;4.640;2022-09-20T12:43:33;102600.66;;;15.49;57.89
59116;BME280;53564;51.930;4.640;2022-09-20T12:45:59;102599.00;;;15.88;59.15
59116;BME280;53564;51.930;4.640;2022-09-20T12:48:27;102596.47;;;15.78;58.63
59116;BME280;53564;51.930;4.640;2022-09-20T12:51:02;102599.50;;;15.63;59.38
59116;BME280;53564;51.930;4.640;2022-09-20T12:54:01;102596.25;;;15.47;59.79
59116;BME280;53564;51.930;4.640;2022-09-20T12:56:27;102584.28;;;15.65;59.84
59116;BME280;53564;51.930;4.640;2022-09-20T12:58:54;102597.38;;;15.35;60.16
59116;BME280;53564;51.930;4.640;2022-09-20T13:03:48;102602.44;;;15.50;58.97
59116;BME280;53564;51.930;4.640;2022-09-20T13:14:13;102603.25;;;16.70;56.84
59116;BME280;53564;51.930;4.640;2022-09-20T13:19:41;102600.41;;;16.04;59.34
59116;BME280;53564;51.930;4.640;2022-09-20T13:22:29;102602.41;;;15.94;59.14
59116;BME280;53564;51.930;4.640;2022-09-20T13:25:00;102586.97;;;16.06;57.38
59116;BME280;53564;51.930;4.640;2022-09-20T13:27:39;102601.78;;;15.81;56.78
59116;BME280;53564;51.930;4.640;2022-09-20T13:30:20;102585.59;;;17.29;56.18
59116;BME280;53564;51.930;4.640;2022-09-20T13:32:47;102590.06;;;16.61;54.88
59116;BME280;53564;51.930;4.640;2022-09-20T13:35:19;102585.41;;;16.69;55.11
59116;BME280;53564;51.930;4.640;2022-09-20T13:37:56;102582.78;;;17.92;53.55
59116;BME280;53564;51.930;4.640;2022-09-20T13:40:24;102578.78;;;18.60;54.39
59116;BME280;53564;51.930;4.640;2022-09-20T13:42:51;102588.53;;;17.49;52.50
59116;BME280;53564;51.930;4.640;2022-09-20T13:45:19;102584.88;;;17.22;52.21
59116;BME280;53564;51.930;4.640;2022-09-20T13:47:51;102596.09;;;18.52;52.29
59116;BME280;53564;51.930;4.640;2022-09-20T13:50:26;102582.63;;;19.29;50.08
59116;BME280;53564;51.930;4.640;2022-09-20T13:52:54;102575.59;;;18.74;51.30
59116;BME280;53564;51.930;4.640;2022-09-20T13:55:35;102587.22;;;18.23;48.23
59116;BME280;53564;51.930;4.640;2022-09-20T13:58:16;102585.84;;;17.79;47.72
59116;BME280;53564;51.930;4.640;2022-09-20T14:00:54;102581.66;;;17.71;49.10
59116;BME280;53564;51.930;4.640;2022-09-20T14:03:21;102573.22;;;16.90;51.43
59116;BME280;53564;51.930;4.640;2022-09-20T14:05:50;102583.78;;;17.59;47.19
59116;BME280;53564;51.930;4.640;2022-09-20T14:08:34;102566.53;;;17.38;49.09
59116;BME280;53564;51.930;4.640;2022-09-20T14:11:25;102566.97;;;18.39;51.14
59116;BME280;53564;51.930;4.640;2022-09-20T14:13:54;102575.56;;;17.04;50.12
59116;BME280;53564;51.930;4.640;2022-09-20T14:16:22;102576.34;;;17.69;50.70
59116;BME280;53564;51.930;4.640;2022-09-20T14:18:49;102557.50;;;17.71;53.93
59116;BME280;53564;51.930;4.640;2022-09-20T14:21:22;102564.53;;;18.84;52.09
59116;BME280;53564;51.930;4.640;2022-09-20T14:23:51;102568.28;;;18.27;50.64
59116;BME280;53564;51.930;4.640;2022-09-20T14:26:21;102568.25;;;18.80;49.43
59116;BME280;53564;51.930;4.640;2022-09-20T14:28:47;102576.25;;;17.42;49.40
59116;BME280;53564;51.930;4.640;2022-09-20T14:33:47;102580.97;;;16.68;46.21
59116;BME280;53564;51.930;4.640;2022-09-20T14:36:19;102575.03;;;16.91;49.36
59116;BME280;53564;51.930;4.640;2022-09-20T14:38:46;102580.28;;;16.24;48.65
59116;BME280;53564;51.930;4.640;2022-09-20T14:41:13;102574.75;;;16.66;49.01
59116;BME280;53564;51.930;4.640;2022-09-20T14:43:53;102570.94;;;16.76;49.17
59116;BME280;53564;51.930;4.640;2022-09-20T14:46:18;102573.19;;;16.59;48.48
59116;BME280;53564;51.930;4.640;2022-09-20T14:48:52;102566.50;;;16.75;47.34
59116;BME280;53564;51.930;4.640;2022-09-20T14:53:44;102574.06;;;16.94;47.26
59116;BME280;53564;51.930;4.640;2022-09-20T14:56:12;102565.81;;;17.02;47.89
59116;BME280;53564;51.930;4.640;2022-09-20T14:59:18;102565.81;;;17.02;49.30
59116;BME280;53564;51.930;4.640;2022-09-20T15:04:31;102559.53;;;17.01;46.80
59116;BME280;53564;51.930;4.640;2022-09-20T15:07:01;102566.25;;;17.18;49.38
59116;BME280;53564;51.930;4.640;2022-09-20T15:09:27;102554.75;;;17.74;49.43
59116;BME280;53564;51.930;4.640;2022-09-20T15:12:01;102558.31;;;17.44;49.20
59116;BME280;53564;51.930;4.640;2022-09-20T15:14:27;102553.84;;;17.73;50.03
59116;BME280;53564;51.930;4.640;2022-09-20T15:16:52;102554.78;;;17.42;49.06
59116;BME280;53564;51.930;4.640;2022-09-20T15:19:18;102549.66;;;17.03;50.13
59116;BME280;53564;51.930;4.640;2022-09-20T15:21:43;102562.06;;;17.07;50.25
59116;BME280;53564;51.930;4.640;2022-09-20T15:24:08;102559.25;;;17.12;47.66
59116;BME280;53564;51.930;4.640;2022-09-20T15:26:34;102553.84;;;16.80;48.54
59116;BME280;53564;51.930;4.640;2022-09-20T15:29:00;102551.22;;;16.77;50.56
59116;BME280;53564;51.930;4.640;2022-09-20T15:31:25;102545.06;;;17.08;51.37
59116;BME280;53564;51.930;4.640;2022-09-20T15:33:52;102549.91;;;16.95;50.46
59116;BME280;53564;51.930;4.640;2022-09-20T15:36:17;102544.63;;;16.58;50.16
59116;BME280;53564;51.930;4.640;2022-09-20T15:38:42;102562.94;;;16.40;49.79
59116;BME280;53564;51.930;4.640;2022-09-20T15:41:08;102562.06;;;16.74;50.36
59116;BME280;53564;51.930;4.640;2022-09-20T15:43:34;102554.06;;;16.38;49.92
59116;BME280;53564;51.930;4.640;2022-09-20T15:46:16;102551.78;;;16.23;48.98
59116;BME280;53564;51.930;4.640;2022-09-20T15:48:41;102556.53;;;16.11;47.85
59116;BME280;53564;51.930;4.640;2022-09-20T15:51:13;102545.81;;;16.11;47.85
59116;BME280;53564;51.930;4.640;2022-09-20T15:54:00;102542.94;;;16.19;49.08
59116;BME280;53564;51.930;4.640;2022-09-20T15:56:31;102551.44;;;16.37;49.36
59116;BME280;53564;51.930;4.640;2022-09-20T15:58:58;102549.91;;;15.89;47.90
59116;BME280;53564;51.930;4.640;2022-09-20T16:01:29;102545.81;;;16.11;50.36
59116;BME280;53564;51.930;4.640;2022-09-20T16:03:56;102552.13;;;16.07;50.98
59116;BME280;53564;51.930;4.640;2022-09-20T16:06:22;102554.16;;;15.97;52.28
59116;BME280;53564;51.930;4.640;2022-09-20T16:08:48;102549.47;;;16.07;52.28
59116;BME280;53564;51.930;4.640;2022-09-20T16:11:15;102561.13;;;16.41;53.15
59116;BME280;53564;51.930;4.640;2022-09-20T16:13:41;102555.88;;;16.36;53.79
59116;BME280;53564;51.930;4.640;2022-09-20T16:16:08;102567.75;;;16.26;54.01
59116;BME280;53564;51.930;4.640;2022-09-20T16:18:37;102554.94;;;16.02;54.16
59116;BME280;53564;51.930;4.640;2022-09-20T16:21:21;102571.38;;;15.85;55.41
59116;BME280;53564;51.930;4.640;2022-09-20T16:23:48;102566.38;;;15.70;56.09
59116;BME280;53564;51.930;4.640;2022-09-20T16:26:14;102561.94;;;16.08;55.69
59116;BME280;53564;51.930;4.640;2022-09-20T16:28:41;102566.94;;;15.84;55.95
59116;BME280;53564;51.930;4.640;2022-09-20T16:31:36;102570.38;;;15.90;56.26
59116;BME280;53564;51.930;4.640;2022-09-20T16:34:31;102578.78;;;15.71;54.99
59116;BME280;53564;51.930;4.640;2022-09-20T16:39:28;102584.53;;;15.52;54.76
59116;BME280;53564;51.930;4.640;2022-09-20T16:41:58;102574.25;;;15.34;54.96